Time;durP1;ratioP1;P1;durP2;ratioP2;P2;SDS_P1;SDS_P2;PMS_P1;PMS_P2;Temp;Humidity;BMP_temperature;BMP_pressure;BME280_temperature;BME280_humidity;BME280_pressure;Samples;Min_cycle;Max_cycle;Signal;HPM_P1;HPM_P2
2021/03/10 00:02:17;;;;;;;1.47;1.20;;;12.90;84.40;;;;;;5082942;28;20491;-45
2021/03/10 00:05:05;;;;;;;1.40;1.30;;;12.70;87.10;;;;;;5079460;28;20447;-47
2021/03/10 00:07:35;;;;;;;1.63;1.53;;;12.90;83.40;;;;;;5082346;28;20451;-46
2021/03/10 00:10:09;;;;;;;2.40;1.60;;;13.00;85.80;;;;;;5077947;28;20534;-45
2021/03/10 00:12:40;;;;;;;1.80;1.60;;;13.00;91.20;;;;;;5082745;28;20497;-44
2021/03/10 00:15:12;;;;;;;1.40;1.30;;;12.90;92.80;;;;;;5078513;28;20488;-45
2021/03/10 00:17:43;;;;;;;1.83;1.27;;;12.70;94.30;;;;;;5064268;28;20587;-45
2021/03/10 00:20:16;;;;;;;1.07;0.97;;;12.80;96.10;;;;;;5074199;28;20464;-43
2021/03/10 00:22:46;;;;;;;2.33;1.70;;;12.90;97.10;;;;;;5066670;28;20591;-47
2021/03/10 00:25:19;;;;;;;1.67;1.57;;;13.10;98.40;;;;;;5081087;28;20933;-47
2021/03/10 00:27:49;;;;;;;1.40;1.30;;;13.20;98.40;;;;;;5066469;28;20483;-43
2021/03/10 00:30:20;;;;;;;1.80;1.67;;;13.20;96.20;;;;;;5062709;28;20460;-48
2021/03/10 00:32:50;;;;;;;1.67;1.57;;;13.00;92.30;;;;;;5064838;28;20456;-46
2021/03/10 00:35:31;;;;;;;2.20;1.77;;;12.90;92.70;;;;;;5070132;28;20519;-45
2021/03/10 00:38:02;;;;;;;1.63;1.30;;;12.70;92.20;;;;;;5070387;28;20566;-41
2021/03/10 00:40:34;;;;;;;1.97;1.70;;;12.80;93.30;;;;;;5066099;28;20460;-44
2021/03/10 00:43:06;;;;;;;3.40;1.83;;;12.80;92.60;;;;;;5073012;28;20440;-44
2021/03/10 00:45:36;;;;;;;1.93;1.70;;;12.80;93.50;;;;;;5071929;28;20459;-47
2021/03/10 00:48:06;;;;;;;2.60;1.83;;;12.90;94.20;;;;;;5075571;28;20452;-44
2021/03/10 00:50:37;;;;;;;1.87;1.63;;;12.80;94.00;;;;;;5071666;28;20459;-45
2021/03/10 00:53:07;;;;;;;2.70;2.00;;;12.70;94.90;;;;;;5068327;28;20479;-43
2021/03/10 00:55:38;;;;;;;2.00;1.80;;;12.60;94.40;;;;;;5069557;28;20472;-49
2021/03/10 00:58:08;;;;;;;1.93;1.63;;;12.70;93.80;;;;;;5073230;28;20451;-49
2021/03/10 01:00:38;;;;;;;3.50;1.60;;;12.60;94.10;;;;;;5063367;28;20465;-44
2021/03/10 01:03:08;;;;;;;1.87;1.70;;;12.40;96.40;;;;;;5070958;28;20469;-47
2021/03/10 01:05:49;;;;;;;1.50;1.40;;;12.40;96.10;;;;;;5064378;28;20505;-46
2021/03/10 01:08:19;;;;;;;1.60;1.50;;;12.40;93.60;;;;;;5063186;28;20487;-42
2021/03/10 01:10:50;;;;;;;1.70;1.60;;;12.50;93.90;;;;;;5070236;28;20504;-44
2021/03/10 01:13:20;;;;;;;1.63;1.37;;;12.60;91.70;;;;;;5073746;28;20471;-46
2021/03/10 01:15:50;;;;;;;2.00;1.67;;;12.60;91.30;;;;;;5070008;28;20490;-45
2021/03/10 01:18:21;;;;;;;2.40;2.20;;;12.60;91.90;;;;;;5065022;28;20480;-47
2021/03/10 01:20:54;;;;;;;0.87;0.40;;;12.80;94.00;;;;;;5079432;28;20455;-48
2021/03/10 01:23:24;;;;;;;1.00;0.70;;;12.60;89.60;;;;;;5078794;28;20955;-44
2021/03/10 01:25:55;;;;;;;2.30;1.30;;;12.60;90.70;;;;;;5068224;28;20448;-45
2021/03/10 01:28:25;;;;;;;2.60;1.30;;;12.40;93.70;;;;;;5072829;28;20460;-48
2021/03/10 01:30:55;;;;;;;1.00;1.00;;;12.00;99.40;;;;;;5068748;28;20462;-43
2021/03/10 01:33:25;;;;;;;0.87;0.83;;;11.70;99.90;;;;;;5082004;28;20841;-50
2021/03/10 01:36:11;;;;;;;2.70;1.17;;;11.40;99.90;;;;;;5069656;28;20554;-45
2021/03/10 01:38:42;;;;;;;1.27;1.17;;;11.00;99.90;;;;;;5079044;28;20451;-47
2021/03/10 01:41:15;;;;;;;1.88;1.25;;;10.70;99.90;;;;;;5064157;28;20200;-45
2021/03/10 01:43:45;;;;;;;1.70;1.60;;;10.60;99.90;;;;;;5065879;28;20199;-51
2021/03/10 01:46:15;;;;;;;1.75;1.65;;;10.40;99.90;;;;;;5064837;28;20454;-45
2021/03/10 01:48:46;;;;;;;1.70;1.30;;;10.20;99.90;;;;;;5066621;28;20211;-47
2021/03/10 01:51:16;;;;;;;2.00;1.50;;;10.20;99.90;;;;;;5065904;28;20337;-46
2021/03/10 01:53:46;;;;;;;1.95;1.70;;;10.20;99.90;;;;;;5062986;28;20207;-48
2021/03/10 01:56:17;;;;;;;1.88;1.63;;;10.20;99.90;;;;;;5075598;28;20220;-47
2021/03/10 01:58:48;;;;;;;1.50;1.40;;;10.20;99.90;;;;;;5082702;28;20236;-45
2021/03/10 02:01:18;;;;;;;1.95;1.45;;;10.00;99.90;;;;;;5070250;28;20218;-46
2021/03/10 02:03:48;;;;;;;1.40;1.30;;;10.00;99.90;;;;;;5078770;28;20202;-46
2021/03/10 02:06:41;;;;;;;1.60;1.50;;;9.80;99.90;;;;;;5070475;28;20206;-50
2021/03/10 02:09:17;;;;;;;2.50;1.67;;;9.70;99.90;;;;;;5066864;28;20279;-48
2021/03/10 02:11:58;;;;;;;2.47;1.75;;;9.70;99.90;;;;;;5081964;28;20256;-45
2021/03/10 02:14:38;;;;;;;1.85;1.30;;;9.60;99.90;;;;;;5081373;28;20217;-44
2021/03/10 02:17:11;;;;;;;2.72;1.80;;;9.60;99.90;;;;;;5062968;28;20271;-45
2021/03/10 02:20:13;;;;;;;1.92;1.83;;;9.60;99.90;;;;;;5069787;28;20197;-52
2021/03/10 02:23:07;;;;;;;2.67;1.77;;;9.50;99.90;;;;;;5070631;28;20229;-47
2021/03/10 02:25:54;;;;;;;4.10;1.60;;;9.30;99.90;;;;;;5074442;28;20209;-53
2021/03/10 02:28:26;;;;;;;2.22;1.95;;;9.20;99.90;;;;;;5086138;28;20206;-51
2021/03/10 02:30:58;;;;;;;2.25;2.05;;;9.10;99.90;;;;;;5065658;28;20219;-51
2021/03/10 02:33:30;;;;;;;2.22;1.95;;;9.10;99.90;;;;;;5078146;28;20198;-49
2021/03/10 02:36:03;;;;;;;2.70;2.50;;;9.10;99.90;;;;;;5067926;28;20294;-50
2021/03/10 02:38:33;;;;;;;2.45;2.25;;;9.10;99.90;;;;;;5085334;28;20197;-51
2021/03/10 02:41:04;;;;;;;2.95;2.60;;;9.00;99.90;;;;;;5067879;28;20191;-53
2021/03/10 02:43:40;;;;;;;2.38;2.05;;;8.90;99.90;;;;;;5068718;28;20220;-48
2021/03/10 02:46:11;;;;;;;2.13;1.90;;;8.80;99.90;;;;;;5081729;28;20266;-53
2021/03/10 02:48:43;;;;;;;2.65;2.20;;;8.80;99.90;;;;;;5072123;28;20207;-53
2021/03/10 02:51:16;;;;;;;2.00;1.90;;;8.80;99.90;;;;;;5080631;28;20205;-50
2021/03/10 02:53:48;;;;;;;3.88;1.98;;;8.80;99.90;;;;;;5071762;28;20256;-50
2021/03/10 02:56:18;;;;;;;1.48;1.38;;;8.80;99.90;;;;;;5065184;28;20221;-52
2021/03/10 02:58:49;;;;;;;1.88;1.73;;;8.80;99.90;;;;;;5067904;28;20237;-49
2021/03/10 03:01:20;;;;;;;1.30;1.20;;;8.80;99.90;;;;;;5066090;28;20220;-51
2021/03/10 03:03:50;;;;;;;2.47;1.70;;;8.80;99.90;;;;;;5067356;28;20222;-53
2021/03/10 03:06:20;;;;;;;1.10;1.10;;;8.80;99.90;;;;;;5071087;28;20207;-49
2021/03/10 03:08:51;;;;;;;1.42;1.33;;;8.70;99.90;;;;;;5073845;28;20210;-49
2021/03/10 03:11:21;;;;;;;2.20;2.00;;;8.80;99.90;;;;;;5080549;28;20221;-50
2021/03/10 03:13:53;;;;;;;2.20;2.00;;;8.70;99.90;;;;;;5069630;28;20209;-51
2021/03/10 03:16:26;;;;;;;1.95;1.85;;;8.70;99.90;;;;;;5080147;28;20244;-49
2021/03/10 03:18:57;;;;;;;1.40;1.27;;;8.80;99.90;;;;;;5077184;28;20233;-49
2021/03/10 03:21:27;;;;;;;1.55;1.35;;;8.70;99.90;;;;;;5065433;28;20201;-51
2021/03/10 03:23:59;;;;;;;2.47;1.30;;;8.70;99.90;;;;;;5064865;28;20201;-52
2021/03/10 03:26:29;;;;;;;1.40;1.20;;;8.60;99.90;;;;;;5071343;28;20243;-53
2021/03/10 03:29:01;;;;;;;1.55;1.45;;;8.50;99.90;;;;;;5077431;28;20198;-50
2021/03/10 03:31:34;;;;;;;1.50;1.40;;;8.40;99.90;;;;;;5072816;28;20348;-51
2021/03/10 03:34:06;;;;;;;1.35;1.25;;;8.30;99.90;;;;;;5081279;28;20206;-52
2021/03/10 03:36:38;;;;;;;1.65;1.45;;;8.30;99.90;;;;;;5071814;28;20302;-51
2021/03/10 03:39:08;;;;;;;1.70;1.60;;;8.30;99.90;;;;;;5076473;28;20252;-51
2021/03/10 03:41:39;;;;;;;1.45;1.35;;;8.30;99.90;;;;;;5068848;28;20194;-48
2021/03/10 03:44:11;;;;;;;1.65;1.50;;;8.30;99.90;;;;;;5072819;28;20198;-53
2021/03/10 03:46:41;;;;;;;2.35;1.70;;;8.20;99.90;;;;;;5083124;28;20213;-50
2021/03/10 03:49:11;;;;;;;1.77;1.30;;;8.30;99.90;;;;;;5067567;28;20259;-48
2021/03/10 03:51:41;;;;;;;1.80;1.65;;;8.30;99.90;;;;;;5074760;28;20255;-51
2021/03/10 03:54:12;;;;;;;1.98;1.83;;;8.20;99.90;;;;;;5076190;28;20190;-49
2021/03/10 03:56:42;;;;;;;3.22;2.90;;;8.30;99.90;;;;;;5068273;28;20267;-52
2021/03/10 03:59:13;;;;;;;2.90;2.60;;;8.20;99.90;;;;;;5078254;28;20210;-52
2021/03/10 04:01:43;;;;;;;2.40;2.20;;;8.30;99.90;;;;;;5077840;28;20209;-51
2021/03/10 04:04:13;;;;;;;4.05;2.42;;;8.30;99.90;;;;;;5068149;28;20194;-53
2021/03/10 04:06:47;;;;;;;2.30;2.08;;;8.30;99.90;;;;;;5065799;28;20232;-49
2021/03/10 04:09:17;;;;;;;3.38;3.08;;;8.30;99.90;;;;;;5068446;28;20185;-52
2021/03/10 04:11:48;;;;;;;3.08;2.60;;;8.30;99.90;;;;;;5069616;28;20252;-50
2021/03/10 04:14:20;;;;;;;3.30;2.30;;;8.20;99.90;;;;;;5070784;28;20265;-53
2021/03/10 04:16:50;;;;;;;4.13;2.95;;;8.30;99.90;;;;;;5068442;28;20332;-49
2021/03/10 04:19:21;;;;;;;4.60;2.65;;;8.30;99.90;;;;;;5071610;28;20247;-53
2021/03/10 04:21:51;;;;;;;4.18;3.20;;;8.30;99.90;;;;;;5079198;28;20267;-52
2021/03/10 04:24:24;;;;;;;3.80;2.95;;;8.40;99.90;;;;;;5069394;28;20636;-53
2021/03/10 04:26:54;;;;;;;3.63;3.28;;;8.40;99.90;;;;;;5069798;28;20189;-54
2021/03/10 04:29:25;;;;;;;4.07;3.20;;;8.50;99.90;;;;;;5069862;28;20203;-52
2021/03/10 04:31:55;;;;;;;4.88;3.67;;;8.40;99.90;;;;;;5071331;28;20227;-54
2021/03/10 04:34:26;;;;;;;4.53;3.25;;;8.30;99.90;;;;;;5082786;28;20228;-54
2021/03/10 04:36:56;;;;;;;5.68;3.42;;;8.30;99.90;;;;;;5076808;28;20233;-51
2021/03/10 04:39:26;;;;;;;4.75;3.65;;;8.30;99.90;;;;;;5073494;28;20202;-52
2021/03/10 04:41:56;;;;;;;3.83;3.45;;;8.20;99.90;;;;;;5075953;28;20205;-54
2021/03/10 04:44:27;;;;;;;4.40;3.78;;;8.10;99.90;;;;;;5081939;28;20289;-54
2021/03/10 04:46:57;;;;;;;4.30;3.05;;;8.10;99.90;;;;;;5076749;28;20209;-51
2021/03/10 04:49:27;;;;;;;4.80;3.60;;;8.10;99.90;;;;;;5082442;28;20205;-52
2021/03/10 04:51:57;;;;;;;3.38;3.10;;;8.10;99.90;;;;;;5081640;28;20251;-51
2021/03/10 04:54:28;;;;;;;3.72;3.35;;;8.00;99.90;;;;;;5082422;28;20216;-52
2021/03/10 04:56:58;;;;;;;4.07;3.67;;;8.00;99.90;;;;;;5078971;28;20723;-50
2021/03/10 04:59:30;;;;;;;3.45;2.95;;;8.00;99.90;;;;;;5068255;28;20229;-54
2021/03/10 05:02:03;;;;;;;4.82;3.72;;;8.00;99.90;;;;;;5079343;28;20205;-55
2021/03/10 05:04:38;;;;;;;4.07;3.00;;;8.00;99.90;;;;;;5067027;28;20337;-55
2021/03/10 05:07:08;;;;;;;2.35;2.15;;;7.80;99.90;;;;;;5071163;28;20324;-53
2021/03/10 05:09:39;;;;;;;2.97;2.72;;;7.80;99.90;;;;;;5072391;28;20206;-53
2021/03/10 05:12:10;;;;;;;3.33;2.95;;;7.80;99.90;;;;;;5082505;28;20264;-51
2021/03/10 05:14:41;;;;;;;3.17;2.88;;;7.80;99.90;;;;;;5072864;28;20209;-50
2021/03/10 05:17:12;;;;;;;3.58;2.88;;;7.80;99.90;;;;;;5080041;28;20226;-54
2021/03/10 05:19:43;;;;;;;2.80;2.60;;;7.90;99.90;;;;;;5072506;28;20249;-51
2021/03/10 05:22:14;;;;;;;2.92;2.17;;;7.90;99.90;;;;;;5068300;28;20227;-55
2021/03/10 05:24:44;;;;;;;2.72;2.13;;;8.00;99.90;;;;;;5082420;28;20205;-54
2021/03/10 05:27:14;;;;;;;3.42;2.50;;;8.00;99.90;;;;;;5072340;28;20210;-54
2021/03/10 05:29:45;;;;;;;2.60;2.33;;;8.00;99.90;;;;;;5073848;28;20218;-54
2021/03/10 05:32:16;;;;;;;2.80;2.60;;;8.00;99.90;;;;;;5074471;28;20258;-55
2021/03/10 05:34:46;;;;;;;2.30;2.20;;;8.00;99.90;;;;;;5076720;28;20201;-54
2021/03/10 05:37:17;;;;;;;1.83;1.73;;;7.90;99.90;;;;;;5079557;28;20222;-52
2021/03/10 05:39:47;;;;;;;4.55;3.47;;;7.80;99.90;;;;;;5081217;28;20197;-53
2021/03/10 05:42:18;;;;;;;4.60;4.30;;;7.90;99.90;;;;;;5069746;28;20227;-54
2021/03/10 05:44:53;;;;;;;2.55;2.38;;;8.00;99.90;;;;;;5076707;28;20213;-54
2021/03/10 05:47:23;;;;;;;2.20;2.10;;;8.10;99.90;;;;;;5082520;28;20211;-54
2021/03/10 05:49:53;;;;;;;2.28;1.90;;;8.10;99.90;;;;;;5074469;28;20555;-55
2021/03/10 05:52:24;;;;;;;1.98;1.77;;;8.10;99.90;;;;;;5082541;28;20300;-54
2021/03/10 05:54:57;;;;;;;2.22;1.95;;;8.10;99.90;;;;;;5081518;28;20209;-54
2021/03/10 05:57:27;;;;;;;1.88;1.77;;;8.00;99.90;;;;;;5079569;28;20206;-54
2021/03/10 05:59:58;;;;;;;3.17;2.78;;;8.10;99.90;;;;;;5078366;28;20226;-51
2021/03/10 06:02:30;;;;;;;2.55;2.35;;;8.00;99.90;;;;;;5069370;28;20354;-50
2021/03/10 06:05:01;;;;;;;2.47;2.28;;;8.00;99.90;;;;;;5081061;28;20706;-54
2021/03/10 06:07:32;;;;;;;4.30;3.17;;;8.10;99.90;;;;;;5081614;28;20214;-51
2021/03/10 06:10:04;;;;;;;3.38;2.95;;;8.10;99.90;;;;;;5072763;28;20251;-50
2021/03/10 06:12:41;;;;;;;3.10;2.85;;;8.20;99.90;;;;;;5085742;28;20635;-53
2021/03/10 06:15:14;;;;;;;3.50;3.10;;;8.20;99.90;;;;;;5084103;28;20205;-54
2021/03/10 06:17:47;;;;;;;3.58;3.25;;;8.10;99.90;;;;;;5079892;28;20244;-54
2021/03/10 06:20:27;;;;;;;3.38;3.17;;;8.20;99.90;;;;;;5080241;28;20247;-51
2021/03/10 06:22:57;;;;;;;3.67;3.28;;;8.20;99.90;;;;;;5086289;28;20652;-54
2021/03/10 06:25:37;;;;;;;3.42;3.08;;;8.20;99.90;;;;;;5085588;28;20204;-53
2021/03/10 06:28:07;;;;;;;4.07;3.10;;;8.10;99.90;;;;;;5080944;28;20212;-53
2021/03/10 06:30:41;;;;;;;3.92;3.63;;;8.00;99.90;;;;;;5084572;28;20220;-53
2021/03/10 06:33:22;;;;;;;4.82;4.43;;;8.00;99.90;;;;;;5084514;28;20544;-54
2021/03/10 06:35:53;;;;;;;3.58;3.30;;;7.90;99.90;;;;;;5073858;28;20293;-52
2021/03/10 06:38:23;;;;;;;3.80;3.50;;;8.00;99.90;;;;;;5080261;28;20197;-52
2021/03/10 06:40:55;;;;;;;3.80;3.50;;;7.90;99.90;;;;;;5085117;28;20208;-52
2021/03/10 06:43:38;;;;;;;3.10;2.78;;;7.90;99.90;;;;;;5081414;28;20292;-53
2021/03/10 06:46:18;;;;;;;3.40;3.10;;;7.80;99.90;;;;;;5083357;28;20213;-53
2021/03/10 06:48:58;;;;;;;3.33;2.75;;;7.70;99.90;;;;;;5084658;28;20209;-52
2021/03/10 06:51:31;;;;;;;3.50;3.20;;;7.70;99.90;;;;;;5079149;28;20201;-52
2021/03/10 06:54:01;;;;;;;4.25;3.95;;;7.80;99.90;;;;;;5076730;28;20206;-54
2021/03/10 06:56:33;;;;;;;5.20;3.65;;;7.70;99.90;;;;;;5076506;28;20705;-52
2021/03/10 06:59:05;;;;;;;5.28;4.70;;;7.70;99.90;;;;;;5079359;28;20220;-53
2021/03/10 07:01:41;;;;;;;5.40;5.00;;;7.70;99.90;;;;;;5084082;28;20209;-54
2021/03/10 07:04:12;;;;;;;5.28;4.85;;;7.80;99.90;;;;;;5083948;28;20201;-52
2021/03/10 07:06:42;;;;;;;5.47;5.07;;;7.70;99.90;;;;;;5073662;28;20234;-52
2021/03/10 07:09:14;;;;;;;6.00;5.45;;;7.70;99.90;;;;;;5068438;28;20206;-51
2021/03/10 07:11:45;;;;;;;5.80;5.30;;;7.60;99.90;;;;;;5073310;28;20577;-52
2021/03/10 07:14:16;;;;;;;5.90;5.30;;;7.60;99.90;;;;;;5070506;28;20227;-54
2021/03/10 07:16:47;;;;;;;6.93;5.70;;;7.50;99.90;;;;;;5077517;28;20289;-54
2021/03/10 07:19:20;;;;;;;5.55;5.00;;;7.50;99.90;;;;;;5083200;28;20224;-54
2021/03/10 07:21:52;;;;;;;6.10;5.60;;;7.50;99.90;;;;;;5080752;28;20253;-54
2021/03/10 07:24:28;;;;;;;6.15;5.55;;;7.60;99.90;;;;;;5071407;28;20214;-54
2021/03/10 07:26:59;;;;;;;5.90;5.40;;;7.50;99.90;;;;;;5073343;28;20229;-55
2021/03/10 07:29:36;;;;;;;7.10;6.40;;;7.50;99.90;;;;;;5071396;28;20206;-53
2021/03/10 07:32:09;;;;;;;6.10;5.43;;;7.50;99.90;;;;;;5084486;28;20203;-53
2021/03/10 07:34:40;;;;;;;4.93;4.50;;;7.50;99.90;;;;;;5084009;28;20206;-54
2021/03/10 07:37:17;;;;;;;6.18;5.65;;;7.50;99.90;;;;;;5082641;28;20226;-54
2021/03/10 07:39:47;;;;;;;6.60;5.35;;;7.40;99.90;;;;;;5084264;28;20234;-52
2021/03/10 07:42:18;;;;;;;5.65;5.15;;;7.50;99.90;;;;;;5084247;28;20261;-55
2021/03/10 07:44:57;;;;;;;8.35;5.60;;;7.50;99.90;;;;;;5069107;28;20253;-55
2021/03/10 07:47:28;;;;;;;6.32;5.72;;;7.60;99.90;;;;;;5073943;28;20212;-54
2021/03/10 07:49:59;;;;;;;5.80;5.10;;;7.50;99.90;;;;;;5066172;28;20308;-55
2021/03/10 07:52:30;;;;;;;5.97;5.47;;;7.60;99.90;;;;;;5073327;28;20263;-53
2021/03/10 07:55:02;;;;;;;5.80;5.28;;;7.60;99.90;;;;;;5083924;28;20201;-53
2021/03/10 07:57:32;;;;;;;5.43;4.85;;;7.80;99.90;;;;;;5083269;28;20228;-55
2021/03/10 08:00:07;;;;;;;6.05;5.45;;;7.80;99.90;;;;;;5082770;28;20262;-55
2021/03/10 08:02:45;;;;;;;5.53;5.05;;;7.70;99.90;;;;;;5081945;28;20246;-55
2021/03/10 08:05:23;;;;;;;5.90;5.28;;;7.60;99.90;;;;;;5082720;28;20201;-54
2021/03/10 08:08:08;;;;;;;8.38;5.82;;;7.60;99.90;;;;;;5082735;28;20201;-55
2021/03/10 08:10:39;;;;;;;5.65;5.15;;;7.50;99.90;;;;;;5070727;28;20205;-55
2021/03/10 08:13:16;;;;;;;6.55;5.97;;;7.50;99.90;;;;;;5084206;28;20197;-56
2021/03/10 08:15:47;;;;;;;5.78;5.18;;;7.50;99.90;;;;;;5076653;28;20230;-55
2021/03/10 08:18:23;;;;;;;6.35;5.75;;;7.50;99.90;;;;;;5079821;28;20229;-52
2021/03/10 08:20:54;;;;;;;7.28;6.00;;;7.50;99.90;;;;;;5072833;28;20212;-53
2021/03/10 08:23:30;;;;;;;6.80;5.90;;;7.50;99.90;;;;;;5077525;28;20210;-54
2021/03/10 08:26:01;;;;;;;7.20;6.50;;;7.50;99.90;;;;;;5071594;28;20213;-52
2021/03/10 08:28:35;;;;;;;6.63;5.95;;;7.50;99.90;;;;;;5084009;28;20596;-53
2021/03/10 08:31:07;;;;;;;7.28;6.65;;;7.60;99.90;;;;;;5069847;28;20267;-56
2021/03/10 08:33:48;;;;;;;6.75;6.15;;;7.60;99.90;;;;;;5082721;28;20209;-50
2021/03/10 08:36:19;;;;;;;6.30;5.70;;;7.60;99.90;;;;;;5079769;28;20229;-54
2021/03/10 08:38:49;;;;;;;6.63;6.03;;;7.60;99.90;;;;;;5082868;28;20288;-54
2021/03/10 08:41:28;;;;;;;7.60;6.90;;;7.50;99.90;;;;;;5077072;28;20209;-54
2021/03/10 08:44:12;;;;;;;7.93;6.55;;;7.60;99.90;;;;;;5075283;28;20206;-55
2021/03/10 08:46:45;;;;;;;6.03;5.53;;;7.60;99.90;;;;;;5072426;28;20213;-54
2021/03/10 08:49:27;;;;;;;6.00;5.50;;;7.60;99.90;;;;;;5075489;28;20229;-55
2021/03/10 08:52:06;;;;;;;7.05;6.15;;;7.60;99.90;;;;;;5075214;28;20229;-55
2021/03/10 08:54:46;;;;;;;6.88;6.22;;;7.60;99.90;;;;;;5083561;28;20201;-55
2021/03/10 08:57:17;;;;;;;5.90;5.40;;;7.60;99.90;;;;;;5066548;28;20248;-55
2021/03/10 08:59:47;;;;;;;9.27;6.57;;;7.70;99.90;;;;;;5077741;28;20232;-53
2021/03/10 09:02:26;;;;;;;6.40;5.85;;;7.60;99.90;;;;;;5073582;28;20288;-52
2021/03/10 09:04:58;;;;;;;8.15;5.13;;;7.50;99.90;;;;;;5074753;28;20210;-52
2021/03/10 09:07:29;;;;;;;7.18;6.57;;;7.50;99.90;;;;;;5070605;28;20269;-54
2021/03/10 09:10:01;;;;;;;7.00;5.20;;;7.50;99.90;;;;;;5081551;28;20217;-56
2021/03/10 09:12:31;;;;;;;5.95;5.45;;;7.50;99.90;;;;;;5073038;28;20622;-54
2021/03/10 09:15:01;;;;;;;6.75;6.15;;;7.60;99.90;;;;;;5076354;28;20209;-55
2021/03/10 09:17:35;;;;;;;7.53;6.68;;;7.50;99.90;;;;;;5082285;28;20220;-56
2021/03/10 09:20:28;;;;;;;6.78;6.07;;;7.60;99.90;;;;;;5080806;28;20219;-54
2021/03/10 09:23:00;;;;;;;8.02;6.90;;;7.50;99.90;;;;;;5082453;28;20209;-56
2021/03/10 09:25:31;;;;;;;7.63;6.50;;;7.50;99.90;;;;;;5077236;28;20197;-55
2021/03/10 09:28:10;;;;;;;7.63;6.80;;;7.50;99.90;;;;;;5081720;28;20221;-55
2021/03/10 09:30:41;;;;;;;8.68;7.53;;;7.50;99.90;;;;;;5079963;28;20217;-54
2021/03/10 09:33:19;;;;;;;9.63;8.73;;;7.50;99.90;;;;;;5082636;28;20205;-55
2021/03/10 09:35:56;;;;;;;10.65;8.25;;;7.50;99.90;;;;;;5082499;28;20656;-52
2021/03/10 09:38:27;;;;;;;8.02;7.22;;;7.40;99.90;;;;;;5075116;28;20201;-55
2021/03/10 09:40:59;;;;;;;8.00;7.30;;;7.40;99.90;;;;;;5080664;28;20234;-54
2021/03/10 09:43:30;;;;;;;8.25;7.43;;;7.30;99.90;;;;;;5078031;28;20227;-55
2021/03/10 09:46:04;;;;;;;8.30;7.60;;;7.20;99.90;;;;;;5079746;28;20236;-53
2021/03/10 09:48:35;;;;;;;7.55;6.95;;;7.10;99.90;;;;;;5082065;28;20205;-54
2021/03/10 09:51:10;;;;;;;8.45;7.65;;;7.00;99.90;;;;;;5072759;28;20217;-56
2021/03/10 09:53:42;;;;;;;8.30;7.50;;;6.90;99.90;;;;;;5063329;28;20309;-54
2021/03/10 09:56:14;;;;;;;8.05;7.35;;;6.80;99.90;;;;;;5067613;28;20237;-55
2021/03/10 09:58:48;;;;;;;8.73;7.78;;;6.80;99.90;;;;;;5080533;28;20215;-53
2021/03/10 10:01:19;;;;;;;8.27;7.55;;;6.80;99.90;;;;;;5072030;28;20633;-56
2021/03/10 10:03:49;;;;;;;7.95;7.18;;;6.80;99.90;;;;;;5079032;28;20209;-56
2021/03/10 10:06:21;;;;;;;8.90;8.10;;;6.70;99.90;;;;;;5071230;28;20205;-51
2021/03/10 10:08:52;;;;;;;8.80;7.90;;;6.60;99.90;;;;;;5082366;28;20661;-54
2021/03/10 10:11:22;;;;;;;9.20;8.40;;;6.50;99.90;;;;;;5081987;28;20200;-52
2021/03/10 10:13:52;;;;;;;7.57;6.88;;;6.50;99.90;;;;;;5082602;28;20193;-55
2021/03/10 10:16:23;;;;;;;9.10;8.20;;;6.40;99.90;;;;;;5079116;28;20248;-53
2021/03/10 10:18:57;;;;;;;8.80;7.95;;;6.40;99.90;;;;;;5080402;28;20323;-53
2021/03/10 10:21:28;;;;;;;8.65;7.82;;;6.40;99.90;;;;;;5081905;28;20200;-54
2021/03/10 10:24:00;;;;;;;8.82;7.97;;;6.40;99.90;;;;;;5066413;28;20208;-55
2021/03/10 10:26:30;;;;;;;9.23;8.35;;;6.30;99.90;;;;;;5071753;28;20243;-55
2021/03/10 10:29:00;;;;;;;9.80;8.90;;;6.30;99.90;;;;;;5081492;28;20201;-53
2021/03/10 10:31:31;;;;;;;9.93;9.02;;;6.40;99.90;;;;;;5068516;28;20270;-55
2021/03/10 10:34:01;;;;;;;10.15;9.25;;;6.30;99.90;;;;;;5080462;28;20292;-53
2021/03/10 10:36:33;;;;;;;10.77;9.00;;;6.40;99.90;;;;;;5072846;28;20233;-54
2021/03/10 10:39:18;;;;;;;10.30;9.27;;;6.30;99.90;;;;;;5063924;28;20210;-53
2021/03/10 10:41:48;;;;;;;10.32;9.23;;;6.30;99.90;;;;;;5079580;28;20216;-54
2021/03/10 10:44:18;;;;;;;10.95;9.85;;;6.30;99.90;;;;;;5085027;28;20198;-51
2021/03/10 10:46:48;;;;;;;11.10;10.00;;;6.30;99.90;;;;;;5074715;28;20202;-55
2021/03/10 10:49:19;;;;;;;10.88;9.75;;;6.30;99.90;;;;;;5078253;28;20197;-51
2021/03/10 10:51:50;;;;;;;9.32;8.18;;;6.30;99.90;;;;;;5085262;28;20226;-53
2021/03/10 10:54:20;;;;;;;9.25;8.30;;;6.20;99.90;;;;;;5072222;28;20201;-54
2021/03/10 10:56:50;;;;;;;11.07;9.77;;;6.20;99.90;;;;;;5077302;28;20229;-54
2021/03/10 10:59:21;;;;;;;9.15;8.30;;;6.10;99.90;;;;;;5076295;28;20194;-51
2021/03/10 11:01:51;;;;;;;11.70;10.15;;;6.10;99.90;;;;;;5069492;28;20206;-48
2021/03/10 11:04:21;;;;;;;10.93;9.93;;;6.10;99.90;;;;;;5085293;28;20631;-50
2021/03/10 11:06:53;;;;;;;11.27;10.15;;;6.10;99.90;;;;;;5072959;28;20297;-53
2021/03/10 11:09:23;;;;;;;10.93;10.05;;;6.10;99.90;;;;;;5073066;28;20255;-51
2021/03/10 11:11:54;;;;;;;12.18;9.75;;;6.10;99.90;;;;;;5085350;28;20201;-52
2021/03/10 11:14:24;;;;;;;11.10;9.85;;;6.10;99.90;;;;;;5084938;28;20251;-52
2021/03/10 11:16:56;;;;;;;10.68;9.70;;;6.10;99.90;;;;;;5080324;28;20289;-51
2021/03/10 11:19:27;;;;;;;9.80;8.90;;;6.10;99.90;;;;;;5075792;28;20714;-52
2021/03/10 11:21:58;;;;;;;10.75;9.65;;;6.10;99.90;;;;;;5084474;28;20205;-50
2021/03/10 11:24:42;;;;;;;10.60;9.50;;;6.10;99.90;;;;;;5082821;28;20217;-54
2021/03/10 11:27:17;;;;;;;10.75;9.75;;;6.00;99.90;;;;;;5068253;28;20205;-54
2021/03/10 11:29:47;;;;;;;10.25;9.35;;;6.10;99.90;;;;;;5075818;28;20203;-52
2021/03/10 11:32:18;;;;;;;10.90;9.90;;;6.10;99.90;;;;;;5077469;28;20684;-53
2021/03/10 11:34:48;;;;;;;10.85;9.95;;;6.20;99.90;;;;;;5074236;28;20201;-54
2021/03/10 11:37:19;;;;;;;11.20;10.30;;;6.20;99.90;;;;;;5075057;28;20294;-53
2021/03/10 11:39:49;;;;;;;10.15;9.15;;;6.10;99.90;;;;;;5083802;28;20204;-54
2021/03/10 11:42:21;;;;;;;11.05;10.05;;;5.90;99.90;;;;;;5081704;28;20234;-54
2021/03/10 11:44:51;;;;;;;10.90;9.80;;;5.90;99.90;;;;;;5073571;28;20209;-55
2021/03/10 11:47:21;;;;;;;10.57;9.55;;;5.90;99.90;;;;;;5072804;28;20293;-49
2021/03/10 11:49:52;;;;;;;12.20;9.32;;;5.80;99.90;;;;;;5079568;28;20227;-55
2021/03/10 11:52:23;;;;;;;11.75;10.65;;;5.80;99.90;;;;;;5082265;28;20206;-54
2021/03/10 11:54:53;;;;;;;10.50;9.50;;;5.90;99.90;;;;;;5070256;28;20758;-53
2021/03/10 11:57:23;;;;;;;11.05;10.05;;;5.90;99.90;;;;;;5082915;28;20232;-51
2021/03/10 11:59:53;;;;;;;10.18;9.27;;;5.90;99.90;;;;;;5083744;28;20217;-54
2021/03/10 12:02:23;;;;;;;11.20;10.20;;;5.90;99.90;;;;;;5079211;28;20272;-51
2021/03/10 12:04:53;;;;;;;11.38;10.30;;;5.90;99.90;;;;;;5081350;28;20212;-52
2021/03/10 12:07:25;;;;;;;11.43;10.25;;;5.90;99.90;;;;;;5082855;28;20197;-53
2021/03/10 12:09:56;;;;;;;11.07;10.05;;;5.90;99.90;;;;;;5083815;28;20200;-53
2021/03/10 12:12:27;;;;;;;13.75;11.90;;;5.90;99.90;;;;;;5072982;28;20565;-53
2021/03/10 12:14:57;;;;;;;12.48;11.45;;;5.90;99.90;;;;;;5082629;28;20206;-54
2021/03/10 12:18:05;;;;;;;12.20;11.02;;;6.00;99.90;;;;;;5082854;28;20739;-54
2021/03/10 12:20:37;;;;;;;12.25;11.05;;;6.10;99.90;;;;;;5081641;28;20292;-55
2021/03/10 12:23:10;;;;;;;13.68;12.27;;;6.10;99.90;;;;;;5068265;28;20206;-52
2021/03/10 12:25:40;;;;;;;13.98;12.57;;;6.10;99.90;;;;;;5081937;28;20205;-52
2021/03/10 12:28:10;;;;;;;13.73;12.27;;;6.20;99.90;;;;;;5081099;28;20193;-54
2021/03/10 12:30:40;;;;;;;13.70;12.07;;;6.20;99.90;;;;;;5081862;28;20231;-52
2021/03/10 12:33:10;;;;;;;11.82;10.63;;;6.30;99.90;;;;;;5082150;28;20288;-55
2021/03/10 12:35:41;;;;;;;15.05;12.68;;;6.40;99.90;;;;;;5083500;28;20205;-55
2021/03/10 12:38:12;;;;;;;14.45;13.00;;;6.30;99.90;;;;;;5083115;28;20775;-55
2021/03/10 12:40:53;;;;;;;13.20;11.90;;;6.20;99.90;;;;;;5080440;28;20233;-51
2021/03/10 12:43:23;;;;;;;12.98;11.68;;;6.20;99.90;;;;;;5078982;28;20193;-54
2021/03/10 12:45:54;;;;;;;14.18;12.77;;;6.20;99.90;;;;;;5081902;28;20201;-55
2021/03/10 12:48:24;;;;;;;14.13;11.23;;;6.30;99.90;;;;;;5082554;28;20209;-54
2021/03/10 12:50:54;;;;;;;13.38;11.98;;;6.30;99.90;;;;;;5080710;28;20260;-54
2021/03/10 12:53:25;;;;;;;13.80;12.07;;;6.30;99.90;;;;;;5082732;28;20201;-53
2021/03/10 12:55:55;;;;;;;13.73;12.43;;;6.30;99.90;;;;;;5077124;28;20228;-55
2021/03/10 12:58:25;;;;;;;14.77;13.38;;;6.30;99.90;;;;;;5078962;28;20585;-52
2021/03/10 13:00:55;;;;;;;15.57;13.23;;;6.30;99.90;;;;;;5082380;28;20217;-52
2021/03/10 13:03:25;;;;;;;13.38;12.13;;;6.30;99.90;;;;;;5082657;28;20671;-54
2021/03/10 13:05:55;;;;;;;13.68;12.48;;;6.40;99.90;;;;;;5080107;28;20248;-54
2021/03/10 13:08:26;;;;;;;13.45;11.52;;;6.40;99.90;;;;;;5081939;28;20209;-56
2021/03/10 13:10:56;;;;;;;12.77;11.60;;;6.40;99.90;;;;;;5081115;28;20197;-54
2021/03/10 13:13:27;;;;;;;14.00;12.60;;;6.40;99.90;;;;;;5081550;28;20279;-55
2021/03/10 13:15:57;;;;;;;14.30;13.00;;;6.40;99.90;;;;;;5081726;28;20233;-54
2021/03/10 13:18:27;;;;;;;13.35;12.00;;;6.40;99.90;;;;;;5080889;28;20236;-55
2021/03/10 13:20:57;;;;;;;13.40;12.00;;;6.40;99.90;;;;;;5076700;28;20201;-55